Estación Meteorológica Peña el Pijo (Robertgarden) [ 12/09/19 16:26:19 CET ]

Fecha Hora Presion(HPa) Temp (°C) Humedad % Rocio (°C) Viento ( m/s) Direccion Lluvia 1Hora(mm) Lluvia 24H(mm) LLuvia Total(mm)
2019-Dec-01 01:01:46 1005.200 7.9 74 3.6         37.81
2019-Dec-01 02:01:49 1004.200 8.9 73 4.3         37.81
2019-Dec-01 03:01:47 1003.600 9.1 76 5.0         37.81
2019-Dec-01 04:07:06 1003.100 9.2 78 5.5         37.81
2019-Dec-01 05:01:46 1002.600 9.8 78 6.1         37.81
2019-Dec-01 06:01:56 1002.200 9.9 77 6.0         37.81
2019-Dec-01 07:01:47 1002.100 9.9 77 6.0         37.81
2019-Dec-01 08:01:50 1002.300 8.3 77 4.5         37.81
2019-Dec-01 09:02:01 1002.500 8.4 78 4.8         37.81
2019-Dec-01 10:01:43 1002.700 10.8 65 4.5         37.81
2019-Dec-01 11:01:43 1003.100 12.0 57 3.7         37.81
2019-Dec-01 12:01:34 1002.600 12.4 50 2.3         37.81
2019-Dec-01 13:01:36 1001.300 13.3 44 1.2         37.81
2019-Dec-01 14:01:22 1000.900 13.8 38 -0.4         37.81
2019-Dec-01 15:01:41 1000.300 14.4 40 1.0         37.81
2019-Dec-01 16:01:46 1000.000 13.9 41 0.8         37.81
2019-Dec-01 17:01:48 999.900 10.8 52 1.3         37.81
2019-Dec-01 18:01:53 999.500 9.4 56 1.0         37.81
2019-Dec-01 19:01:45 999.900 6.7 65 0.6         37.81
2019-Dec-01 20:02:01 1000.300 5.8 69 0.6         37.81
2019-Dec-01 21:01:49 1000.300 6.3 72 1.6         37.81
2019-Dec-01 22:01:49 999.900 6.1 73 1.6         37.81
2019-Dec-01 23:01:45 999.900 6.3 76 2.4         37.81

Temperatura Máxima:14°    Temperatura Mínima:
Presión Máxima:1005.200 Hpa    Presión Mínima:999.500 Hpa


Volver